Search for airport 
image banner adimage banner adimage banner ad
image banner ad

CA663 - Fitzgerald (Fort Smith) Cej7

Located in , Canada

ICAO - , IATA -

Data provided by Airmate  

General information

Coordinates: N59°51'0" W111°36'0"
Elevation is feet MSL.
 
View others Airports in Northwest Territories

Operational data

Special qualification required
Current time UTC:
Current local time:
Weather at : CYSM - Fort Smith ( 28 km )
METAR: CYSM 221500Z 14009G16KT 15SM FEW260 01/M03 A2996 RMK CI1 CI TR SLP159
TAF: TAF CYSM 221145Z 2212/2224 14012KT P6SM SKC BECMG 2215/2217 15015G25KT RMK NXT FCST BY 221800Z
View NOTAMs / SUP AIP / TFR affecting this airport [VIEW]
Communications frequencies: [VIEW]

Runways:

Airport contact information

Address: Canada

Satellite view of CA663